createdAt,value
2018-12-07T00:00:20.571Z,98483.81
2018-12-07T00:02:52.315Z,98483.81
2018-12-07T00:05:22.971Z,98484.30
2018-12-07T00:07:53.535Z,98483.47
2018-12-07T00:10:24.794Z,98479.55
2018-12-07T00:12:55.802Z,98479.99
2018-12-07T00:15:26.403Z,98482.06
2018-12-07T00:17:56.962Z,98477.28
2018-12-07T00:20:27.555Z,98470.53
2018-12-07T00:22:58.179Z,98464.64
2018-12-07T00:25:28.810Z,98463.23
2018-12-07T00:27:59.835Z,98457.62
2018-12-07T00:30:30.446Z,98456.84
2018-12-07T00:33:01.058Z,98455.05
2018-12-07T00:35:31.740Z,98453.64
2018-12-07T00:38:02.859Z,98457.45
2018-12-07T00:40:33.518Z,98450.92
2018-12-07T00:43:04.141Z,98449.27
2018-12-07T00:45:34.758Z,98452.23
2018-12-07T00:48:06.946Z,98456.91
2018-12-07T00:50:37.574Z,98454.53
2018-12-07T00:53:08.579Z,98447.55
2018-12-07T00:55:41.369Z,98450.50
2018-12-07T00:58:11.948Z,98449.36
2018-12-07T01:00:42.850Z,98443.24
2018-12-07T01:03:13.425Z,98442.77
2018-12-07T01:05:44.020Z,98437.42
2018-12-07T01:08:14.600Z,98440.25
2018-12-07T01:10:45.200Z,98438.50
2018-12-07T01:13:15.768Z,98435.88
2018-12-07T01:15:46.385Z,98433.61
2018-12-07T01:18:18.051Z,98440.14
2018-12-07T01:20:49.321Z,98438.12
2018-12-07T01:23:19.926Z,98435.98
2018-12-07T01:25:50.762Z,98434.78
2018-12-07T01:28:22.460Z,98432.28
2018-12-07T01:30:53.001Z,98434.78
2018-12-07T01:33:24.586Z,98436.33
2018-12-07T01:35:55.174Z,98439.70
2018-12-07T01:38:25.794Z,98434.70
2018-12-07T01:40:56.385Z,98433.50
2018-12-07T01:43:27.091Z,98430.95
2018-12-07T01:45:57.662Z,98427.51
2018-12-07T01:48:28.281Z,98427.51
2018-12-07T01:50:58.868Z,98429.91
2018-12-07T01:53:29.462Z,98420.38
2018-12-07T01:56:00.067Z,98423.16
2018-12-07T01:58:30.658Z,98421.85
2018-12-07T02:01:01.273Z,98418.64
2018-12-07T02:03:33.011Z,98412.83
2018-12-07T02:06:03.939Z,98414.24
2018-12-07T02:08:34.518Z,98402.58
2018-12-07T02:11:05.097Z,98406.50
2018-12-07T02:13:36.762Z,98401.75
2018-12-07T02:16:08.570Z,98399.25
2018-12-07T02:18:39.165Z,98393.75
2018-12-07T02:21:09.762Z,98390.58
2018-12-07T02:23:40.326Z,98397.67
2018-12-07T02:26:10.978Z,98391.72
2018-12-07T02:28:42.420Z,98390.20
2018-12-07T02:31:13.035Z,98379.26
2018-12-07T02:33:43.602Z,98381.63
2018-12-07T02:36:14.202Z,98377.02
2018-12-07T02:38:44.769Z,98368.80
2018-12-07T02:41:15.618Z,98363.00
2018-12-07T02:43:46.231Z,98359.20
2018-12-07T02:46:16.837Z,98355.55
2018-12-07T02:48:48.474Z,98343.78
2018-12-07T02:51:19.694Z,98353.98
2018-12-07T02:53:51.684Z,98340.90
2018-12-07T02:56:22.333Z,98349.61
2018-12-07T02:58:53.135Z,98348.19
2018-12-07T03:01:23.718Z,98354.62
2018-12-07T03:03:54.381Z,98346.50
2018-12-07T03:06:24.918Z,98347.22
2018-12-07T03:08:55.507Z,98346.66
2018-12-07T03:11:26.075Z,98336.55
2018-12-07T03:13:56.655Z,98332.62
2018-12-07T03:16:27.229Z,98328.24
2018-12-07T03:18:57.823Z,98330.00
2018-12-07T03:21:28.387Z,98321.06
2018-12-07T03:23:58.995Z,98324.87
2018-12-07T03:26:29.599Z,98320.73
2018-12-07T03:29:00.182Z,98325.73
2018-12-07T03:31:30.907Z,98320.28
2018-12-07T03:34:02.507Z,98314.90
2018-12-07T03:36:33.510Z,98307.54
2018-12-07T03:39:06.836Z,98303.13
2018-12-07T03:41:38.945Z,98303.13
2018-12-07T03:44:09.550Z,98309.08
2018-12-07T03:46:40.110Z,98307.42
2018-12-07T03:49:10.721Z,98307.98
2018-12-07T03:51:43.593Z,98309.94
2018-12-07T03:54:14.456Z,98303.89
2018-12-07T03:56:45.304Z,98304.11
2018-12-07T03:59:16.325Z,98299.97
2018-12-07T04:01:47.171Z,98301.77
2018-12-07T04:04:17.767Z,98297.62
2018-12-07T04:06:50.091Z,98296.80
2018-12-07T04:09:21.206Z,98285.84
2018-12-07T04:11:52.647Z,98284.53
2018-12-07T04:14:23.219Z,98284.20
2018-12-07T04:16:53.940Z,98277.81
2018-12-07T04:19:24.767Z,98276.28
2018-12-07T04:21:55.438Z,98271.38
2018-12-07T04:24:26.025Z,98274.00
2018-12-07T04:26:56.865Z,98277.36
2018-12-07T04:29:27.444Z,98266.41
2018-12-07T04:31:58.303Z,98268.54
2018-12-07T04:34:28.872Z,98257.84
2018-12-07T04:36:59.474Z,98258.78
2018-12-07T04:39:30.055Z,98253.92
2018-12-07T04:42:00.769Z,98253.70
2018-12-07T04:44:31.594Z,98251.41
2018-12-07T04:47:02.488Z,98247.89
2018-12-07T04:49:33.065Z,98236.71
2018-12-07T04:52:04.573Z,98243.55
2018-12-07T04:54:35.163Z,98243.06
2018-12-07T04:57:05.758Z,98238.73
2018-12-07T04:59:36.677Z,98244.25
2018-12-07T05:02:07.288Z,98236.52
2018-12-07T05:04:38.568Z,98236.03
2018-12-07T05:07:09.157Z,98234.49
2018-12-07T05:09:39.741Z,98231.39
2018-12-07T05:12:10.622Z,98228.44
2018-12-07T05:14:41.236Z,98224.99
2018-12-07T05:17:11.821Z,98227.35
2018-12-07T05:19:42.423Z,98224.34
2018-12-07T05:22:13.020Z,98224.05
2018-12-07T05:24:44.810Z,98216.58
2018-12-07T05:27:15.645Z,98219.42
2018-12-07T05:32:32.877Z,98205.00
2018-12-07T05:35:04.122Z,98212.96
2018-12-07T05:37:34.707Z,98216.37
2018-12-07T05:40:07.132Z,98210.69
2018-12-07T05:42:38.770Z,98223.20
2018-12-07T05:45:09.940Z,98214.87
2018-12-07T05:47:40.634Z,98215.58
2018-12-07T05:50:11.694Z,98213.93
2018-12-07T05:52:42.254Z,98222.38
2018-12-07T05:55:12.854Z,98217.85
2018-12-07T05:57:43.659Z,98211.94
2018-12-07T06:00:15.192Z,98213.47
2018-12-07T06:02:46.281Z,98213.73
2018-12-07T06:05:17.494Z,98205.77
2018-12-07T06:07:48.675Z,98208.15
2018-12-07T06:10:20.238Z,98212.55
2018-12-07T06:12:51.074Z,98214.97
2018-12-07T06:15:21.645Z,98208.31
2018-12-07T06:17:52.690Z,98206.29
2018-12-07T06:20:23.213Z,98203.55
2018-12-07T06:22:55.151Z,98206.55
2018-12-07T06:25:25.714Z,98202.87
2018-12-07T06:27:56.323Z,98208.56
2018-12-07T06:30:26.905Z,98199.06
2018-12-07T06:32:58.281Z,98195.70
2018-12-07T06:35:29.670Z,98192.38
2018-12-07T06:38:01.055Z,98195.94
2018-12-07T06:40:31.666Z,98189.76
2018-12-07T06:43:02.930Z,98184.16
2018-12-07T06:45:35.121Z,98181.54
2018-12-07T06:48:06.335Z,98184.52
2018-12-07T06:50:37.180Z,98180.23
2018-12-07T06:53:08.008Z,98171.55
2018-12-07T06:55:38.634Z,98177.39
2018-12-07T06:58:09.261Z,98175.59
2018-12-07T07:00:39.910Z,98170.84
2018-12-07T07:03:11.024Z,98161.20
2018-12-07T07:05:41.671Z,98169.53
2018-12-07T07:08:12.255Z,98161.31
2018-12-07T07:10:42.958Z,98158.81
2018-12-07T07:13:13.672Z,98164.42
2018-12-07T07:15:44.530Z,98162.28
2018-12-07T07:18:15.130Z,98156.94
2018-12-07T07:20:45.778Z,98153.34
2018-12-07T07:23:16.827Z,98149.91
2018-12-07T07:25:47.434Z,98144.42
2018-12-07T07:28:18.022Z,98144.85
2018-12-07T07:30:49.501Z,98146.39
2018-12-07T07:33:20.094Z,98142.23
2018-12-07T07:35:51.700Z,98144.28
2018-12-07T07:38:23.281Z,98131.53
2018-12-07T07:40:54.176Z,98134.15
2018-12-07T07:43:24.858Z,98127.77
2018-12-07T07:45:55.460Z,98123.95
2018-12-07T07:48:26.122Z,98114.09
2018-12-07T07:50:56.893Z,98118.98
2018-12-07T07:53:28.379Z,98123.24
2018-12-07T07:55:59.393Z,98131.80
2018-12-07T07:58:29.992Z,98130.70
2018-12-07T08:01:00.558Z,98123.20
2018-12-07T08:03:31.286Z,98117.36
2018-12-07T08:06:02.322Z,98126.52
2018-12-07T08:08:33.019Z,98121.89
2018-12-07T08:11:03.620Z,98114.75
2018-12-07T08:13:34.234Z,98112.95
2018-12-07T08:16:05.042Z,98115.47
2018-12-07T08:18:35.702Z,98114.61
2018-12-07T08:21:06.766Z,98111.77
2018-12-07T08:23:39.907Z,98107.02
2018-12-07T08:26:10.507Z,98101.43
2018-12-07T08:28:41.645Z,98100.95
2018-12-07T08:31:12.230Z,98106.55
2018-12-07T08:33:42.849Z,98093.23
2018-12-07T08:36:13.446Z,98089.55
2018-12-07T08:38:44.026Z,98078.97
2018-12-07T08:41:14.612Z,98080.37
2018-12-07T08:43:45.618Z,98080.05
2018-12-07T08:46:16.194Z,98064.25
2018-12-07T08:48:46.858Z,98060.41
2018-12-07T08:51:17.474Z,98061.73
2018-12-07T08:53:48.739Z,98055.31
2018-12-07T08:56:19.358Z,98056.02
2018-12-07T08:58:50.885Z,98052.91
2018-12-07T09:01:22.462Z,98053.41
2018-12-07T09:03:53.286Z,98049.45
2018-12-07T09:06:24.322Z,98045.41
2018-12-07T09:08:54.992Z,98044.56
2018-12-07T09:11:27.330Z,98037.28
2018-12-07T09:13:58.668Z,98035.70
2018-12-07T09:16:29.954Z,98028.33
2018-12-07T09:19:00.530Z,98022.67
2018-12-07T09:21:31.358Z,98023.98
2018-12-07T09:24:02.860Z,98018.29
2018-12-07T09:26:34.445Z,98024.22
2018-12-07T09:29:05.907Z,98012.06
2018-12-07T09:31:36.847Z,98015.62
2018-12-07T09:34:07.595Z,98014.80
2018-12-07T09:36:38.334Z,98007.07
2018-12-07T09:39:11.224Z,98001.38
2018-12-07T09:41:41.794Z,98003.69
2018-12-07T09:44:12.398Z,98002.95
2018-12-07T09:46:43.448Z,98002.90
2018-12-07T09:49:20.797Z,97995.53
2018-12-07T09:51:51.479Z,97992.30
2018-12-07T09:54:22.134Z,97984.44
2018-12-07T09:56:53.402Z,97981.23
2018-12-07T09:59:24.026Z,97981.56
2018-12-07T10:01:55.786Z,97975.86
2018-12-07T10:04:26.358Z,97972.31
2018-12-07T10:06:56.990Z,97973.83
2018-12-07T10:09:27.831Z,97966.08
2018-12-07T10:11:58.757Z,97971.02
2018-12-07T10:14:30.164Z,97966.27
2018-12-07T10:17:00.785Z,97956.09
2018-12-07T10:19:31.380Z,97963.14
2018-12-07T10:22:01.998Z,97949.56
2018-12-07T10:24:32.587Z,97945.45
2018-12-07T10:27:08.249Z,97935.84
2018-12-07T10:29:39.314Z,97928.27
2018-12-07T10:32:09.918Z,97935.06
2018-12-07T10:34:41.461Z,97924.09
2018-12-07T10:37:12.036Z,97914.69
2018-12-07T10:39:43.083Z,97910.31
2018-12-07T10:42:13.671Z,97908.50
2018-12-07T10:44:44.727Z,97905.87
2018-12-07T10:47:15.751Z,97904.77
2018-12-07T10:49:46.369Z,97892.00
2018-12-07T10:52:16.937Z,97885.63
2018-12-07T10:54:47.765Z,97893.86
2018-12-07T10:57:18.794Z,97888.23
2018-12-07T10:59:49.385Z,97877.46
2018-12-07T11:02:25.394Z,97868.89
2018-12-07T11:05:01.173Z,97857.36
2018-12-07T11:07:36.888Z,97856.72
2018-12-07T11:10:13.494Z,97841.77
2018-12-07T11:13:50.982Z,97837.73
2018-12-07T11:16:27.219Z,97830.74
2018-12-07T11:19:02.995Z,97827.45
2018-12-07T11:21:38.771Z,97813.79
2018-12-07T11:24:14.601Z,97813.05
2018-12-07T11:26:50.580Z,97799.59
2018-12-07T11:29:26.211Z,97787.94
2018-12-07T11:32:02.158Z,97789.24
2018-12-07T11:34:38.610Z,97777.00
2018-12-07T11:37:09.861Z,97777.31
2018-12-07T11:39:40.442Z,97771.63
2018-12-07T11:42:12.760Z,97766.92
2018-12-07T11:44:45.354Z,97764.11
2018-12-07T11:47:15.962Z,97761.16
2018-12-07T11:49:46.583Z,97759.92
2018-12-07T11:52:18.222Z,97750.88
2018-12-07T11:54:48.810Z,97754.88
2018-12-07T11:57:19.408Z,97740.57
2018-12-07T11:59:49.995Z,97737.72
2018-12-07T12:02:26.352Z,97731.95
2018-12-07T12:04:53.422Z,97729.00
2018-12-07T12:07:23.978Z,97727.77
2018-12-07T12:09:54.583Z,97721.28
2018-12-07T12:12:28.002Z,97722.06
2018-12-07T12:14:58.706Z,97725.99
2018-12-07T12:17:29.386Z,97726.33
2018-12-07T12:20:00.007Z,97713.29
2018-12-07T12:22:31.801Z,97711.19
2018-12-07T12:25:03.658Z,97703.89
2018-12-07T12:27:35.581Z,97702.32
2018-12-07T12:30:08.066Z,97678.91
2018-12-07T12:32:38.903Z,97670.23
2018-12-07T12:35:10.019Z,97675.50
2018-12-07T12:37:40.674Z,97668.27
2018-12-07T12:40:11.221Z,97669.16
2018-12-07T12:42:41.931Z,97659.00
2018-12-07T12:45:12.515Z,97652.42
2018-12-07T12:47:43.316Z,97649.57
2018-12-07T12:50:20.309Z,97646.89
2018-12-07T12:52:50.895Z,97642.70
2018-12-07T12:55:21.545Z,97628.98
2018-12-07T12:57:52.133Z,97616.77
2018-12-07T13:00:22.794Z,97623.11
2018-12-07T13:02:54.474Z,97608.02
2018-12-07T13:05:25.078Z,97603.41
2018-12-07T13:07:57.439Z,97605.94
2018-12-07T13:10:28.214Z,97600.78
2018-12-07T13:12:58.795Z,97592.08
2018-12-07T13:15:29.484Z,97591.89
2018-12-07T13:18:00.103Z,97585.73
2018-12-07T13:20:30.831Z,97574.41
2018-12-07T13:23:01.435Z,97565.59
2018-12-07T13:25:32.070Z,97564.64
2018-12-07T13:28:02.698Z,97559.81
2018-12-07T13:30:33.375Z,97552.51
2018-12-07T13:33:04.069Z,97540.36
2018-12-07T13:35:34.683Z,97531.29
2018-12-07T13:38:05.709Z,97510.70
2018-12-07T13:40:36.416Z,97516.11
2018-12-07T13:43:07.772Z,97514.03
2018-12-07T13:45:38.591Z,97505.14
2018-12-07T13:48:09.792Z,97485.59
2018-12-07T13:50:42.565Z,97488.52
2018-12-07T13:53:13.567Z,97493.97
2018-12-07T13:55:44.586Z,97491.30
2018-12-07T13:58:17.391Z,97488.48
2018-12-07T14:00:49.224Z,97475.94
2018-12-07T14:03:20.036Z,97472.28
2018-12-07T14:05:50.962Z,97469.66
2018-12-07T14:08:21.967Z,97463.47
2018-12-07T14:10:53.023Z,97460.84
2018-12-07T14:13:24.034Z,97458.50
2018-12-07T14:15:54.903Z,97455.23
2018-12-07T14:18:26.078Z,97455.41
2018-12-07T14:20:57.015Z,97460.14
2018-12-07T14:23:28.010Z,97449.48
2018-12-07T14:25:58.898Z,97455.77
2018-12-07T14:28:29.562Z,97448.31
2018-12-07T14:31:00.485Z,97434.48
2018-12-07T14:33:31.639Z,97428.57
2018-12-07T14:36:02.487Z,97416.67
2018-12-07T14:38:33.632Z,97413.02
2018-12-07T14:41:04.655Z,97413.23
2018-12-07T14:43:35.709Z,97412.09
2018-12-07T14:46:06.739Z,97411.48
2018-12-07T14:48:37.721Z,97414.88
2018-12-07T14:51:08.654Z,97412.88
2018-12-07T14:53:39.458Z,97406.34
2018-12-07T14:56:10.397Z,97407.39
2018-12-07T14:58:41.434Z,97416.02
2018-12-07T15:01:12.462Z,97405.47
2018-12-07T15:03:43.434Z,97403.11
2018-12-07T15:06:14.454Z,97400.99
2018-12-07T15:08:45.409Z,97407.79
2018-12-07T15:11:16.640Z,97385.92
2018-12-07T15:13:47.425Z,97375.60
2018-12-07T15:16:18.439Z,97371.59
2018-12-07T15:18:49.294Z,97368.16
2018-12-07T15:21:20.689Z,97368.97
2018-12-07T15:23:51.645Z,97365.67
2018-12-07T15:26:22.744Z,97366.48
2018-12-07T15:28:53.667Z,97363.19
2018-12-07T15:31:24.592Z,97368.74
2018-12-07T15:33:55.669Z,97355.48
2018-12-07T15:36:26.748Z,97339.66
2018-12-07T15:38:57.531Z,97340.13
2018-12-07T15:41:28.863Z,97349.63
2018-12-07T15:43:59.787Z,97347.77
2018-12-07T15:46:31.489Z,97339.13
2018-12-07T15:49:02.480Z,97334.98
2018-12-07T15:51:33.456Z,97341.39
2018-12-07T15:54:04.586Z,97347.83
2018-12-07T15:56:36.138Z,97351.42
2018-12-07T15:59:07.230Z,97341.78
2018-12-07T16:01:38.789Z,97333.45
2018-12-07T16:04:09.992Z,97328.94
2018-12-07T16:06:40.927Z,97324.80
2018-12-07T16:09:11.935Z,97319.57
2018-12-07T16:11:42.786Z,97319.41
2018-12-07T16:14:13.835Z,97315.53
2018-12-07T16:16:44.725Z,97300.70
2018-12-07T16:19:15.677Z,97293.81
2018-12-07T16:21:46.913Z,97288.72
2018-12-07T16:24:18.053Z,97291.23
2018-12-07T16:26:49.059Z,97288.69
2018-12-07T16:29:20.116Z,97285.59
2018-12-07T16:31:51.101Z,97291.23
2018-12-07T16:34:21.754Z,97297.31
2018-12-07T16:36:52.905Z,97284.51
2018-12-07T16:39:23.819Z,97290.00
2018-12-07T16:41:54.834Z,97293.33
2018-12-07T16:44:25.713Z,97317.59
2018-12-07T16:46:56.546Z,97318.28
2018-12-07T16:49:27.629Z,97293.00
2018-12-07T16:51:58.827Z,97289.22
2018-12-07T16:54:29.815Z,97275.17
2018-12-07T16:57:00.745Z,97272.43
2018-12-07T16:59:31.865Z,97287.06
2018-12-07T17:02:03.034Z,97276.75
2018-12-07T17:04:33.981Z,97253.86
2018-12-07T17:07:04.945Z,97241.05
2018-12-07T17:09:36.281Z,97247.23
2018-12-07T17:12:07.162Z,97232.83
2018-12-07T17:14:37.967Z,97232.20
2018-12-07T17:17:08.654Z,97212.74
2018-12-07T17:19:39.739Z,97206.48
2018-12-07T17:22:10.798Z,97190.77
2018-12-07T17:24:42.801Z,97164.99
2018-12-07T17:27:13.591Z,97167.66
2018-12-07T17:29:44.706Z,97177.03
2018-12-07T17:32:15.863Z,97173.20
2018-12-07T17:34:47.459Z,97183.91
2018-12-07T17:37:18.795Z,97180.27
2018-12-07T17:39:49.781Z,97173.23
2018-12-07T17:42:29.278Z,97164.59
2018-12-07T17:44:53.982Z,97164.72
2018-12-07T17:47:25.155Z,97168.16
2018-12-07T17:49:56.262Z,97158.73
2018-12-07T17:52:27.832Z,97151.72
2018-12-07T17:54:58.890Z,97148.02
2018-12-07T17:57:29.914Z,97145.13
2018-12-07T18:00:02.144Z,97149.86
2018-12-07T18:02:34.315Z,97130.98
2018-12-07T18:05:06.419Z,97141.21
2018-12-07T18:07:37.480Z,97126.48
2018-12-07T18:10:10.529Z,97127.61
2018-12-07T18:12:41.370Z,97117.83
2018-12-07T18:15:12.583Z,97121.26
2018-12-07T18:17:44.842Z,97118.83
2018-12-07T18:20:16.930Z,97117.66
2018-12-07T18:22:47.855Z,97112.44
2018-12-07T18:25:18.710Z,97115.58
2018-12-07T18:27:49.610Z,97105.98
2018-12-07T18:30:20.430Z,97114.36
2018-12-07T18:32:51.185Z,97109.99
2018-12-07T18:35:22.127Z,97113.09
2018-12-07T18:37:53.108Z,97116.52
2018-12-07T18:40:24.125Z,97104.71
2018-12-07T18:42:55.415Z,97113.84
2018-12-07T18:45:26.446Z,97106.02
2018-12-07T18:47:57.676Z,97104.31
2018-12-07T18:50:28.576Z,97105.17
2018-12-07T18:52:59.665Z,97104.09
2018-12-07T18:55:30.689Z,97097.20
2018-12-07T18:58:01.695Z,97091.85
2018-12-07T19:00:32.850Z,97087.80
2018-12-07T19:03:04.065Z,97097.66
2018-12-07T19:05:35.054Z,97095.59
2018-12-07T19:08:06.013Z,97088.78
2018-12-07T19:10:37.220Z,97086.72
2018-12-07T19:13:08.239Z,97087.27
2018-12-07T19:15:39.078Z,97092.62
2018-12-07T19:18:10.097Z,97098.69
2018-12-07T19:20:41.222Z,97098.42
2018-12-07T19:23:12.357Z,97095.81
2018-12-07T19:25:43.366Z,97095.09
2018-12-07T19:28:14.550Z,97092.98
2018-12-07T19:30:45.566Z,97097.38
2018-12-07T19:33:16.426Z,97095.86
2018-12-07T19:35:47.336Z,97091.13
2018-12-07T19:38:18.315Z,97088.52
2018-12-07T19:40:49.605Z,97096.14
2018-12-07T19:43:20.740Z,97079.92
2018-12-07T19:45:51.773Z,97079.44
2018-12-07T19:48:22.649Z,97076.91
2018-12-07T19:50:54.120Z,97089.95
2018-12-07T19:53:24.929Z,97086.04
2018-12-07T19:55:55.758Z,97092.43
2018-12-07T19:58:26.905Z,97107.05
2018-12-07T20:00:58.235Z,97093.52
2018-12-07T20:03:29.668Z,97103.41
2018-12-07T20:06:00.296Z,97098.24
2018-12-07T20:08:31.284Z,97103.59
2018-12-07T20:11:02.206Z,97099.77
2018-12-07T20:13:32.931Z,97104.31
2018-12-07T20:16:03.769Z,97100.86
2018-12-07T20:18:35.781Z,97114.63
2018-12-07T20:21:06.824Z,97146.89
2018-12-07T20:23:37.850Z,97211.02
2018-12-07T20:26:08.896Z,97225.53
2018-12-07T20:28:39.871Z,97229.16
2018-12-07T20:31:11.347Z,97245.77
2018-12-07T20:33:42.437Z,97254.61
2018-12-07T20:36:13.500Z,97245.12
2018-12-07T20:38:44.326Z,97250.25
2018-12-07T20:41:16.338Z,97257.13
2018-12-07T20:43:47.226Z,97262.02
2018-12-07T20:46:18.239Z,97260.11
2018-12-07T20:48:49.413Z,97273.50
2018-12-07T20:51:21.029Z,97285.59
2018-12-07T20:53:52.110Z,97285.83
2018-12-07T20:56:23.404Z,97306.91
2018-12-07T20:58:54.459Z,97320.42
2018-12-07T21:01:25.954Z,97317.45
2018-12-07T21:05:15.379Z,97326.91
2018-12-07T21:08:03.816Z,97320.19
2018-12-07T21:11:47.989Z,97317.09
2018-12-07T21:14:45.666Z,97328.70
2018-12-07T21:17:26.237Z,97336.17
2018-12-07T21:20:24.163Z,97332.02
2018-12-07T21:22:56.462Z,97327.54
2018-12-07T21:25:27.637Z,97338.77
2018-12-07T21:27:58.732Z,97335.71
2018-12-07T21:30:58.754Z,97342.80
2018-12-07T21:35:03.751Z,97344.22
2018-12-07T21:37:34.812Z,97350.36
2018-12-07T21:40:27.767Z,97370.58
2018-12-07T21:42:58.691Z,97377.80
2018-12-07T21:45:29.740Z,97368.91
2018-12-07T21:52:29.479Z,97380.64
2018-12-07T21:55:00.553Z,97392.59
2018-12-07T21:57:31.431Z,97397.94
2018-12-07T22:00:02.559Z,97389.38
2018-12-07T22:02:34.754Z,97395.89
2018-12-07T22:05:06.711Z,97401.07
2018-12-07T22:07:37.858Z,97400.59
2018-12-07T22:10:09.488Z,97430.50
2018-12-07T22:12:40.838Z,97435.11
2018-12-07T22:15:11.720Z,97446.34
2018-12-07T22:17:42.526Z,97438.08
2018-12-07T22:20:13.669Z,97437.63
2018-12-07T22:22:44.769Z,97455.95
2018-12-07T22:25:16.382Z,97455.70
2018-12-07T22:27:47.607Z,97451.94
2018-12-07T22:30:18.779Z,97439.78
2018-12-07T22:32:50.403Z,97458.78
2018-12-07T22:35:21.170Z,97468.97
2018-12-07T22:37:52.348Z,97466.98
2018-12-07T22:40:23.303Z,97472.09
2018-12-07T22:42:54.512Z,97477.15
2018-12-07T22:45:25.407Z,97489.97
2018-12-07T22:47:56.315Z,97496.36
2018-12-07T22:50:27.270Z,97501.45
2018-12-07T22:52:57.915Z,97497.86
2018-12-07T22:55:28.617Z,97512.31
2018-12-07T22:57:59.413Z,97518.31
2018-12-07T23:00:30.823Z,97529.05
2018-12-07T23:03:03.185Z,97545.63
2018-12-07T23:05:33.770Z,97546.94
2018-12-07T23:08:04.850Z,97558.59
2018-12-07T23:10:35.519Z,97568.74
2018-12-07T23:13:06.143Z,97574.27
2018-12-07T23:15:36.815Z,97575.95
2018-12-07T23:18:07.693Z,97572.91
2018-12-07T23:20:39.339Z,97566.56
2018-12-07T23:23:09.927Z,97557.45
2018-12-07T23:25:41.108Z,97567.98
2018-12-07T23:28:12.161Z,97588.14
2018-12-07T23:30:43.102Z,97594.77
2018-12-07T23:33:13.738Z,97599.75
2018-12-07T23:35:44.354Z,97594.27
2018-12-07T23:38:15.109Z,97593.34
2018-12-07T23:40:46.310Z,97583.86
2018-12-07T23:43:17.383Z,97582.30
2018-12-07T23:45:48.518Z,97590.30
2018-12-07T23:48:19.207Z,97593.34
2018-12-07T23:50:49.873Z,97599.81
2018-12-07T23:53:20.466Z,97593.03
2018-12-07T23:55:51.211Z,97592.42
2018-12-07T23:58:21.851Z,97595.59
